Time;durP1;ratioP1;P1;durP2;ratioP2;P2;SDS_P1;SDS_P2;PMS_P1;PMS_P2;Temp;Humidity;BMP_temperature;BMP_pressure;BME280_temperature;BME280_humidity;BME280_pressure;Samples;Min_cycle;Max_cycle;Signal;HPM_P1;HPM_P2
2023/10/22 00:00:36;;;;;;;2.30;2.00;;;;;;;11.31;100.00;100989.37;105827;1256;72613;-74
2023/10/22 00:03:03;;;;;;;1.90;1.30;;;;;;;11.32;100.00;100990.88;105853;1255;61955;-76
2023/10/22 00:05:30;;;;;;;4.40;1.70;;;;;;;11.33;100.00;100993.80;105862;1257;60441;-77
2023/10/22 00:07:57;;;;;;;4.50;2.60;;;;;;;11.33;100.00;100993.98;105806;1256;73890;-75
2023/10/22 00:10:24;;;;;;;5.60;2.40;;;;;;;11.35;100.00;100995.84;105854;1256;63946;-73
2023/10/22 00:12:50;;;;;;;2.60;1.90;;;;;;;11.34;100.00;100998.67;105780;1256;72744;-75
2023/10/22 00:15:17;;;;;;;2.90;1.50;;;;;;;11.32;100.00;100992.81;105846;1256;62015;-76
2023/10/22 00:17:44;;;;;;;2.20;1.70;;;;;;;11.33;100.00;100990.16;105851;1256;60332;-75
2023/10/22 00:20:12;;;;;;;3.80;1.80;;;;;;;11.33;100.00;100989.60;105923;1256;73664;-74
2023/10/22 00:22:40;;;;;;;1.50;1.40;;;;;;;11.31;100.00;100995.66;105851;1265;62768;-74
2023/10/22 00:25:07;;;;;;;2.10;1.00;;;;;;;11.29;100.00;101000.02;105790;1255;72598;-75
2023/10/22 00:27:34;;;;;;;2.40;1.10;;;;;;;11.27;100.00;101001.35;105856;1258;61969;-74
2023/10/22 00:30:01;;;;;;;2.20;1.70;;;;;;;11.25;100.00;101004.08;105852;1256;60345;-75
2023/10/22 00:32:29;;;;;;;6.90;1.90;;;;;;;11.23;100.00;101004.23;105899;1256;73823;-75
2023/10/22 00:34:58;;;;;;;2.40;1.50;;;;;;;11.19;100.00;100996.86;105914;1257;63852;-74
2023/10/22 00:37:25;;;;;;;4.30;1.50;;;;;;;11.16;100.00;100998.59;105888;1251;72640;-75
2023/10/22 00:39:52;;;;;;;6.10;2.90;;;;;;;11.15;100.00;101007.42;105928;1251;60448;-77
2023/10/22 00:42:20;;;;;;;10.80;4.80;;;;;;;11.14;100.00;101008.91;105866;1256;60422;-75
2023/10/22 00:44:48;;;;;;;7.10;4.00;;;;;;;11.11;100.00;101007.29;105795;1252;74252;-74
2023/10/22 00:47:15;;;;;;;9.70;5.60;;;;;;;11.10;100.00;101000.88;105715;1251;62250;-76
2023/10/22 00:49:43;;;;;;;7.30;4.80;;;;;;;11.09;100.00;101005.83;105858;1251;72671;-77
2023/10/22 00:52:14;;;;;;;9.60;4.40;;;;;;;11.07;100.00;101009.29;105808;1257;62021;-72
2023/10/22 00:54:41;;;;;;;7.50;4.30;;;;;;;11.05;100.00;101017.45;105817;1251;60435;-78
2023/10/22 00:57:08;;;;;;;6.10;2.50;;;;;;;11.02;100.00;101014.45;105748;1257;73048;-76
2023/10/22 00:59:35;;;;;;;4.10;2.80;;;;;;;11.00;100.00;101014.39;105866;1255;63781;-74
2023/10/22 01:02:02;;;;;;;3.90;2.60;;;;;;;10.99;100.00;101017.43;105633;1257;72601;-78
2023/10/22 01:04:31;;;;;;;6.80;3.40;;;;;;;10.97;100.00;101016.31;105666;1251;62060;-75
2023/10/22 01:06:58;;;;;;;6.70;3.60;;;;;;;10.97;100.00;101015.43;105666;1251;60487;-76
2023/10/22 01:09:25;;;;;;;6.20;3.60;;;;;;;10.98;100.00;101014.33;105833;1256;73860;-76
2023/10/22 01:12:00;;;;;;;5.70;3.00;;;;;;;10.98;100.00;101016.60;105650;1257;63932;-75
2023/10/22 01:14:29;;;;;;;8.70;4.20;;;;;;;10.97;100.00;101017.00;105661;1251;72659;-77
2023/10/22 01:16:56;;;;;;;14.90;7.80;;;;;;;10.95;100.00;101010.99;105606;1257;60550;-73
2023/10/22 01:19:24;;;;;;;12.30;7.30;;;;;;;10.93;100.00;101009.20;105651;1258;60512;-75
2023/10/22 01:21:51;;;;;;;17.20;9.90;;;;;;;10.92;100.00;101008.71;105710;1251;72773;-76
2023/10/22 01:24:18;;;;;;;14.40;9.70;;;;;;;10.92;100.00;101011.87;105797;1257;63906;-75
2023/10/22 01:26:45;;;;;;;11.40;7.00;;;;;;;10.92;100.00;101017.79;105944;1252;72689;-75
2023/10/22 01:29:12;;;;;;;15.50;8.30;;;;;;;10.91;100.00;101016.99;105744;1257;62027;-75
2023/10/22 01:31:39;;;;;;;12.40;8.40;;;;;;;10.91;100.00;101018.71;105695;1251;60583;-77
2023/10/22 01:34:06;;;;;;;14.80;8.80;;;;;;;10.91;100.00;101016.77;105698;1257;73940;-74
2023/10/22 01:36:32;;;;;;;20.60;12.70;;;;;;;10.91;100.00;101017.33;105904;1257;62500;-75
2023/10/22 01:38:59;;;;;;;21.70;12.50;;;;;;;10.90;100.00;101016.68;105785;1255;72631;-76
2023/10/22 01:41:27;;;;;;;23.50;14.40;;;;;;;10.87;100.00;101008.62;105716;1256;61924;-74
2023/10/22 01:43:56;;;;;;;19.40;14.30;;;;;;;10.85;100.00;101014.70;105739;1256;60541;-74
2023/10/22 01:46:22;;;;;;;23.90;15.90;;;;;;;10.83;100.00;101013.77;105783;1257;71467;-75
2023/10/22 01:48:49;;;;;;;23.10;15.80;;;;;;;10.82;100.00;101018.38;105735;1255;63810;-76
2023/10/22 01:51:16;;;;;;;18.10;11.60;;;;;;;10.80;100.00;101020.05;105742;1252;72596;-74
2023/10/22 01:53:43;;;;;;;19.90;13.00;;;;;;;10.78;100.00;101009.62;105807;1256;62037;-75
2023/10/22 01:56:10;;;;;;;16.60;12.40;;;;;;;10.77;100.00;101013.35;105683;1256;60466;-77
2023/10/22 01:58:38;;;;;;;16.90;9.60;;;;;;;10.76;100.00;101008.70;105697;1256;73847;-75
2023/10/22 02:01:06;;;;;;;18.40;12.20;;;;;;;10.75;100.00;101004.06;105843;1257;62381;-74
2023/10/22 02:03:34;;;;;;;30.00;15.70;;;;;;;10.74;100.00;101002.88;107010;1256;72622;-73
2023/10/22 02:06:03;;;;;;;26.80;17.50;;;;;;;10.74;100.00;101003.42;106618;1257;60753;-73
2023/10/22 02:08:30;;;;;;;17.10;13.00;;;;;;;10.74;100.00;101007.09;105937;1251;60627;-75
2023/10/22 02:10:57;;;;;;;18.70;11.90;;;;;;;10.73;100.00;101007.97;105690;1254;73905;-74
2023/10/22 02:13:24;;;;;;;17.30;11.10;;;;;;;10.73;100.00;100999.42;105849;1256;63879;-75
2023/10/22 02:15:51;;;;;;;12.60;7.60;;;;;;;10.72;100.00;100998.61;105806;1252;71732;-74
2023/10/22 02:18:17;;;;;;;17.70;9.70;;;;;;;10.70;100.00;100994.86;105965;1256;62025;-76
2023/10/22 02:21:00;;;;;;;10.30;7.40;;;;;;;10.69;100.00;101003.13;105818;1251;60426;-76
2023/10/22 02:23:27;;;;;;;10.40;7.80;;;;;;;10.69;100.00;101002.83;105739;1255;73904;-74
2023/10/22 02:25:54;;;;;;;11.70;7.00;;;;;;;10.67;100.00;100996.26;105747;1255;62916;-74
2023/10/22 02:28:23;;;;;;;8.20;5.60;;;;;;;10.66;100.00;100990.00;105778;1251;72788;-75
2023/10/22 02:30:50;;;;;;;9.10;6.10;;;;;;;10.65;100.00;100992.69;105761;1251;60606;-75
2023/10/22 02:33:17;;;;;;;10.30;7.30;;;;;;;10.65;100.00;100995.70;105707;1251;60464;-75
2023/10/22 02:35:45;;;;;;;14.30;8.30;;;;;;;10.65;100.00;100995.14;105784;1256;73765;-77
2023/10/22 02:38:15;;;;;;;16.10;10.80;;;;;;;10.67;100.00;100998.20;105693;1251;62484;-74
2023/10/22 02:40:43;;;;;;;12.90;8.30;;;;;;;10.68;100.00;100995.19;105774;1257;72729;-76
2023/10/22 02:43:11;;;;;;;14.60;9.10;;;;;;;10.67;100.00;101000.12;105751;1251;62102;-75
2023/10/22 02:45:54;;;;;;;11.40;9.10;;;;;;;10.66;100.00;100999.96;105781;1257;60364;-75
2023/10/22 02:48:23;;;;;;;10.10;6.50;;;;;;;10.66;100.00;101009.97;105784;1251;73804;-74
2023/10/22 02:50:50;;;;;;;12.80;7.70;;;;;;;10.66;100.00;101015.77;105818;1256;62769;-78
2023/10/22 02:53:17;;;;;;;13.40;8.40;;;;;;;10.66;100.00;101018.86;105865;1251;72736;-77
2023/10/22 02:55:44;;;;;;;12.30;7.50;;;;;;;10.68;100.00;101017.36;105722;1257;60521;-76
2023/10/22 02:58:12;;;;;;;11.70;7.70;;;;;;;10.70;100.00;101024.29;105770;1255;60584;-77
2023/10/22 03:00:39;;;;;;;14.70;7.00;;;;;;;10.70;100.00;101023.75;105763;1254;73901;-75
2023/10/22 03:03:06;;;;;;;10.10;4.40;;;;;;;10.70;100.00;101024.44;105764;1256;63999;-75
2023/10/22 03:05:33;;;;;;;8.80;4.90;;;;;;;10.71;100.00;101021.77;105749;1251;72484;-75
2023/10/22 03:08:00;;;;;;;8.70;4.00;;;;;;;10.71;100.00;101018.25;105766;1257;61891;-75
2023/10/22 03:10:28;;;;;;;9.50;4.60;;;;;;;10.72;100.00;101015.37;105940;1251;61107;-77
2023/10/22 03:12:57;;;;;;;8.50;4.10;;;;;;;10.73;100.00;101020.04;105827;1255;73563;-76
2023/10/22 03:15:24;;;;;;;5.80;3.80;;;;;;;10.75;100.00;101020.31;105927;1257;63998;-78
2023/10/22 03:17:53;;;;;;;8.50;4.30;;;;;;;10.77;100.00;101018.98;105702;1251;72639;-75
2023/10/22 03:20:22;;;;;;;10.30;5.00;;;;;;;10.80;100.00;101022.67;105778;1257;61919;-76
2023/10/22 03:22:50;;;;;;;6.40;4.70;;;;;;;10.83;100.00;101020.38;105725;1256;60447;-77
2023/10/22 03:25:18;;;;;;;13.00;6.80;;;;;;;10.85;100.00;101021.16;105791;1255;72966;-75
2023/10/22 03:27:45;;;;;;;11.20;7.20;;;;;;;10.87;100.00;101016.35;105842;1257;63834;-77
2023/10/22 03:30:13;;;;;;;13.30;7.30;;;;;;;10.87;100.00;101018.79;105755;1257;72695;-75
2023/10/22 03:32:40;;;;;;;13.10;7.30;;;;;;;10.89;100.00;101014.98;105766;1256;62099;-76
2023/10/22 03:35:08;;;;;;;13.50;7.90;;;;;;;10.91;100.00;101023.46;105716;1251;60527;-75
2023/10/22 03:37:35;;;;;;;12.30;8.20;;;;;;;10.91;100.00;101021.35;105849;1251;73978;-76
2023/10/22 03:40:04;;;;;;;15.40;8.10;;;;;;;10.92;100.00;101019.36;105866;1255;63877;-76
2023/10/22 03:42:31;;;;;;;9.80;8.00;;;;;;;10.94;100.00;101023.80;105856;1251;72753;-75
2023/10/22 03:44:59;;;;;;;11.60;7.00;;;;;;;10.96;100.00;101025.11;105937;1255;61963;-77
2023/10/22 03:47:27;;;;;;;11.80;7.00;;;;;;;10.97;100.00;101024.73;105848;1251;60604;-75
2023/10/22 03:49:54;;;;;;;8.50;6.70;;;;;;;10.98;100.00;101024.84;105750;1255;73120;-76
2023/10/22 03:52:21;;;;;;;12.10;6.30;;;;;;;10.96;100.00;101026.84;105834;1256;63055;-77
2023/10/22 03:54:56;;;;;;;16.40;6.60;;;;;;;10.95;100.00;101024.61;105811;1251;71469;-75
2023/10/22 03:57:23;;;;;;;11.80;6.20;;;;;;;10.95;100.00;101026.04;105663;1256;62003;-77
2023/10/22 03:59:50;;;;;;;12.10;7.20;;;;;;;10.94;100.00;101021.21;105851;1251;60419;-76
2023/10/22 04:02:18;;;;;;;13.10;6.70;;;;;;;10.94;100.00;101023.31;105768;1251;73802;-75
2023/10/22 04:04:45;;;;;;;13.10;5.80;;;;;;;10.93;100.00;101026.66;105873;1256;63862;-75
2023/10/22 04:07:12;;;;;;;10.30;6.20;;;;;;;10.95;100.00;101036.71;105790;1251;72581;-76
2023/10/22 04:09:39;;;;;;;14.30;6.40;;;;;;;10.96;100.00;101031.92;105709;1257;62012;-74
2023/10/22 04:12:06;;;;;;;11.40;5.80;;;;;;;10.98;100.00;101038.63;105754;1251;60543;-72
2023/10/22 04:14:34;;;;;;;10.10;6.20;;;;;;;11.00;100.00;101037.67;105856;1256;73823;-74
2023/10/22 04:17:01;;;;;;;11.80;6.60;;;;;;;11.02;100.00;101046.14;105946;1256;63913;-75
2023/10/22 04:19:28;;;;;;;16.50;6.60;;;;;;;11.04;100.00;101047.45;105896;1251;72677;-74
2023/10/22 04:21:55;;;;;;;16.30;7.50;;;;;;;11.05;100.00;101051.21;105787;1255;61909;-73
2023/10/22 04:24:22;;;;;;;15.80;6.60;;;;;;;11.08;100.00;101052.98;105833;1251;60486;-75
2023/10/22 04:26:50;;;;;;;14.50;7.10;;;;;;;11.10;100.00;101052.35;105856;1252;73746;-73
2023/10/22 04:29:17;;;;;;;14.80;6.90;;;;;;;11.10;100.00;101048.48;105798;1256;63745;-71
2023/10/22 04:31:44;;;;;;;14.50;7.90;;;;;;;11.12;100.00;101051.72;105892;1251;73545;-74
2023/10/22 04:34:12;;;;;;;18.50;7.30;;;;;;;11.13;100.00;101061.80;105942;1256;61997;-74
2023/10/22 04:36:39;;;;;;;12.30;6.30;;;;;;;11.14;100.00;101065.58;105759;1255;60427;-77
2023/10/22 04:39:06;;;;;;;19.20;8.50;;;;;;;11.16;100.00;101065.84;105774;1251;73863;-73
2023/10/22 04:41:33;;;;;;;20.10;7.70;;;;;;;11.18;100.00;101065.89;105814;1256;63836;-74
2023/10/22 04:44:01;;;;;;;18.20;8.10;;;;;;;11.19;100.00;101067.75;105762;1256;72636;-74
2023/10/22 04:46:28;;;;;;;21.80;7.80;;;;;;;11.21;100.00;101070.46;105738;1255;61851;-75
2023/10/22 04:48:56;;;;;;;17.20;8.30;;;;;;;11.23;100.00;101068.27;105686;1257;60523;-76
2023/10/22 04:51:24;;;;;;;18.30;8.60;;;;;;;11.24;100.00;101070.46;106871;1255;73855;-74
2023/10/22 04:53:51;;;;;;;19.40;9.30;;;;;;;11.26;100.00;101073.49;106060;1251;62345;-74
2023/10/22 04:56:18;;;;;;;21.30;10.90;;;;;;;11.30;100.00;101077.87;105892;1251;73328;-74
2023/10/22 04:58:44;;;;;;;18.80;9.60;;;;;;;11.34;100.00;101084.25;105885;1255;61883;-73
2023/10/22 05:01:11;;;;;;;26.40;11.70;;;;;;;11.37;100.00;101086.89;105893;1255;60434;-74
2023/10/22 05:03:39;;;;;;;22.90;10.20;;;;;;;11.39;100.00;101090.30;105870;1256;73714;-75
2023/10/22 05:06:06;;;;;;;18.80;9.40;;;;;;;11.39;100.00;101095.34;105861;1256;61664;-73
2023/10/22 05:08:40;;;;;;;16.60;8.40;;;;;;;11.39;100.00;101097.11;105942;1251;72404;-76
2023/10/22 05:11:14;;;;;;;15.50;8.60;;;;;;;11.39;100.00;101098.68;105754;1251;60871;-77
2023/10/22 05:13:43;;;;;;;20.20;8.10;;;;;;;11.40;100.00;101100.90;105781;1251;60536;-78
2023/10/22 05:16:10;;;;;;;16.80;8.60;;;;;;;11.43;100.00;101103.05;105926;1255;72761;-76
2023/10/22 05:18:37;;;;;;;15.60;8.50;;;;;;;11.44;100.00;101108.77;105814;1255;64061;-76
2023/10/22 05:21:05;;;;;;;21.80;9.40;;;;;;;11.44;100.00;101106.11;105759;1251;72558;-79
2023/10/22 05:23:33;;;;;;;15.50;7.90;;;;;;;11.47;100.00;101108.41;105841;1256;62484;-74
2023/10/22 05:26:04;;;;;;;22.40;9.10;;;;;;;11.50;100.00;101109.27;105871;1251;60451;-74
2023/10/22 05:28:31;;;;;;;18.20;8.00;;;;;;;11.53;100.00;101108.92;105693;1253;72719;-76
2023/10/22 05:30:58;;;;;;;18.50;9.00;;;;;;;11.56;100.00;101114.20;105777;1256;63631;-78
2023/10/22 05:33:25;;;;;;;20.80;8.20;;;;;;;11.57;100.00;101117.11;105735;1251;72688;-76
2023/10/22 05:35:52;;;;;;;22.60;8.90;;;;;;;11.58;100.00;101114.96;105814;1252;62012;-73
2023/10/22 05:38:19;;;;;;;18.50;8.10;;;;;;;11.60;100.00;101114.34;105836;1251;61034;-78
2023/10/22 05:40:46;;;;;;;19.30;8.00;;;;;;;11.62;100.00;101115.09;105843;1251;73834;-76
2023/10/22 05:43:12;;;;;;;19.00;10.00;;;;;;;11.64;100.00;101111.31;105956;1256;63954;-75
2023/10/22 05:45:39;;;;;;;20.50;8.40;;;;;;;11.65;100.00;101112.82;105860;1256;71588;-75
2023/10/22 05:48:06;;;;;;;19.40;9.10;;;;;;;11.66;100.00;101117.14;105756;1255;62064;-74
2023/10/22 05:50:38;;;;;;;19.90;8.70;;;;;;;11.67;100.00;101116.20;105960;1251;60487;-78
2023/10/22 05:53:05;;;;;;;17.80;8.70;;;;;;;11.68;100.00;101115.13;105905;1251;73876;-78
2023/10/22 05:55:32;;;;;;;16.10;9.20;;;;;;;11.68;100.00;101111.61;105886;1256;63170;-76
2023/10/22 05:57:59;;;;;;;17.40;8.90;;;;;;;11.69;100.00;101114.54;105963;1255;71260;-73
2023/10/22 06:00:27;;;;;;;20.60;8.70;;;;;;;11.69;100.00;101113.29;105846;1256;61692;-76
2023/10/22 06:02:55;;;;;;;15.70;7.70;;;;;;;11.70;100.00;101110.45;105807;1251;60406;-76
2023/10/22 06:05:23;;;;;;;14.10;7.80;;;;;;;11.71;100.00;101114.58;105724;1251;72480;-77
2023/10/22 06:07:53;;;;;;;18.90;8.40;;;;;;;11.71;100.00;101113.52;105804;1251;64582;-78
2023/10/22 06:10:20;;;;;;;17.60;7.60;;;;;;;11.73;100.00;101116.06;105874;1251;73841;-76
2023/10/22 06:12:50;;;;;;;17.10;7.70;;;;;;;11.72;100.00;101121.02;106082;1255;61657;-74
2023/10/22 06:15:17;;;;;;;15.30;7.40;;;;;;;11.71;100.00;101115.61;105917;1251;60431;-75
2023/10/22 06:19:56;;;;;;;20.70;7.90;;;;;;;11.77;100.00;101117.60;102665;1292;600438;-77
2023/10/22 06:22:24;;;;;;;17.80;9.10;;;;;;;11.79;100.00;101120.80;105340;1263;61720;-77
2023/10/22 06:24:51;;;;;;;16.60;7.70;;;;;;;11.86;100.00;101120.54;105524;1263;59520;-76
2023/10/22 06:27:19;;;;;;;15.10;7.30;;;;;;;11.91;100.00;101113.98;105313;1257;71393;-76
2023/10/22 06:29:48;;;;;;;16.30;7.00;;;;;;;11.97;100.00;101115.95;105285;1257;62740;-80
2023/10/22 06:32:15;;;;;;;11.60;6.20;;;;;;;11.97;100.00;101120.14;105344;1261;71450;-76
2023/10/22 06:34:43;;;;;;;13.80;7.20;;;;;;;11.95;100.00;101116.74;105401;1260;193772;-75
2023/10/22 06:37:11;;;;;;;17.20;7.30;;;;;;;11.97;100.00;101118.55;105551;1260;61108;-78
2023/10/22 06:39:38;;;;;;;17.20;8.20;;;;;;;12.00;100.00;101114.48;105400;1257;72198;-77
2023/10/22 06:42:06;;;;;;;43.00;24.00;;;;;;;12.05;100.00;101113.38;105648;1256;62642;-77
2023/10/22 06:44:33;;;;;;;28.10;14.40;;;;;;;12.12;100.00;101114.52;105671;1256;71368;-74
2023/10/22 06:47:00;;;;;;;14.70;8.00;;;;;;;12.20;100.00;101118.45;105832;1257;62472;-78
2023/10/22 06:49:28;;;;;;;17.20;7.60;;;;;;;12.26;100.00;101116.52;106096;1257;60004;-75
2023/10/22 06:51:55;;;;;;;16.10;7.00;;;;;;;12.31;100.00;101108.16;106347;1259;71944;-78
2023/10/22 06:54:23;;;;;;;18.60;7.00;;;;;;;12.37;100.00;101106.20;106817;1257;62569;-75
2023/10/22 06:56:51;;;;;;;13.20;7.20;;;;;;;12.42;100.00;101100.65;106826;1255;71178;-73
2023/10/22 06:59:18;;;;;;;13.90;6.60;;;;;;;12.47;100.00;101100.18;105940;1257;61776;-75
2023/10/22 07:01:45;;;;;;;12.40;6.40;;;;;;;12.53;100.00;101099.67;105994;1260;59553;-74
2023/10/22 07:04:13;;;;;;;21.00;8.20;;;;;;;12.59;100.00;101097.55;106403;1256;73250;-73
2023/10/22 07:06:41;;;;;;;16.50;6.20;;;;;;;12.63;100.00;101097.60;105974;1257;62500;-73
2023/10/22 07:09:09;;;;;;;17.80;7.00;;;;;;;12.71;100.00;101101.73;105816;1257;72716;-76
2023/10/22 07:11:38;;;;;;;14.90;7.10;;;;;;;12.79;100.00;101105.45;105750;1261;61296;-75
2023/10/22 07:14:06;;;;;;;13.60;6.60;;;;;;;12.86;100.00;101106.95;105500;1257;59759;-76
2023/10/22 07:16:34;;;;;;;13.80;7.10;;;;;;;12.95;100.00;101105.88;105544;1260;73157;-79
2023/10/22 07:19:01;;;;;;;14.60;7.20;;;;;;;13.05;100.00;101103.52;105575;1257;63165;-76
2023/10/22 07:21:29;;;;;;;13.30;6.80;;;;;;;13.13;100.00;101099.98;105520;1262;72705;-74
2023/10/22 07:23:57;;;;;;;13.80;6.30;;;;;;;13.19;100.00;101094.55;105585;1259;61862;-76
2023/10/22 07:26:26;;;;;;;14.60;6.30;;;;;;;13.23;100.00;101092.13;105390;1260;59644;-75
2023/10/22 07:28:53;;;;;;;13.20;6.80;;;;;;;13.30;100.00;101085.27;105387;1260;72203;-77
2023/10/22 07:31:21;;;;;;;12.80;6.30;;;;;;;13.38;100.00;101087.02;105646;1255;64264;-76
2023/10/22 07:33:49;;;;;;;14.60;6.20;;;;;;;13.49;100.00;101091.95;105472;1257;72921;-77
2023/10/22 07:36:17;;;;;;;15.90;7.10;;;;;;;13.55;100.00;101091.40;105590;1257;63764;-74
2023/10/22 07:38:46;;;;;;;11.80;6.10;;;;;;;13.57;100.00;101089.98;105746;1256;62183;-76
2023/10/22 07:41:14;;;;;;;12.90;6.00;;;;;;;13.60;100.00;101090.16;105365;1262;73668;-76
2023/10/22 07:43:43;;;;;;;25.40;8.30;;;;;;;13.62;100.00;101087.26;105448;1259;62289;-74
2023/10/22 07:46:10;;;;;;;14.20;6.90;;;;;;;13.64;100.00;101087.94;105466;1257;71365;-77
2023/10/22 07:48:40;;;;;;;15.30;6.30;;;;;;;13.69;100.00;101087.11;105377;1260;61651;-78
2023/10/22 07:51:13;;;;;;;12.60;5.60;;;;;;;13.71;100.00;101079.42;105665;1258;59547;-75
2023/10/22 07:53:41;;;;;;;12.20;6.60;;;;;;;13.69;100.00;101079.02;105506;1260;74224;-77
2023/10/22 07:56:10;;;;;;;11.00;5.20;;;;;;;13.74;100.00;101078.55;105525;1257;62294;-76
2023/10/22 07:58:38;;;;;;;15.90;8.80;;;;;;;13.82;100.00;101081.20;105678;1261;71512;-75
2023/10/22 08:01:08;;;;;;;12.40;6.30;;;;;;;13.89;100.00;101080.38;105440;1259;59775;-76
2023/10/22 08:03:36;;;;;;;13.60;5.50;;;;;;;13.97;100.00;101082.27;105457;1260;60121;-77
2023/10/22 08:06:04;;;;;;;12.40;6.40;;;;;;;14.01;100.00;101079.52;105611;1256;70901;-75
2023/10/22 08:08:33;;;;;;;16.00;6.60;;;;;;;14.01;100.00;101077.25;105260;1257;63037;-73
2023/10/22 08:11:02;;;;;;;11.30;6.10;;;;;;;13.97;100.00;101080.37;105482;1259;74928;-76
2023/10/22 08:13:29;;;;;;;11.50;5.50;;;;;;;13.93;100.00;101078.89;105408;1257;60784;-78
2023/10/22 08:15:57;;;;;;;13.50;6.30;;;;;;;13.91;100.00;101075.80;105464;1256;60397;-77
2023/10/22 08:18:24;;;;;;;16.50;7.00;;;;;;;13.94;100.00;101071.97;105599;1257;73266;-75
2023/10/22 08:20:52;;;;;;;10.80;5.90;;;;;;;14.01;100.00;101071.13;105599;1254;62050;-75
2023/10/22 08:23:20;;;;;;;13.20;6.80;;;;;;;14.10;100.00;101074.37;105750;1257;72373;-75
2023/10/22 08:25:51;;;;;;;13.70;6.50;;;;;;;14.18;100.00;101069.47;105537;1258;60407;-76
2023/10/22 08:28:19;;;;;;;15.70;9.80;;;;;;;14.27;100.00;101063.55;105713;1259;59656;-77
2023/10/22 08:30:50;;;;;;;13.90;7.90;;;;;;;14.35;100.00;101068.52;105734;1257;72202;-77
2023/10/22 08:33:17;;;;;;;13.60;6.40;;;;;;;14.38;100.00;101065.77;105613;1259;62415;-76
2023/10/22 08:35:45;;;;;;;13.00;6.90;;;;;;;14.43;100.00;101066.15;105676;1254;73171;-76
2023/10/22 08:38:15;;;;;;;12.30;6.30;;;;;;;14.51;100.00;101067.34;105640;1259;60425;-74
2023/10/22 08:40:44;;;;;;;9.50;6.30;;;;;;;14.57;100.00;101067.68;105694;1257;59617;-75
2023/10/22 08:43:16;;;;;;;9.10;6.60;;;;;;;14.62;100.00;101076.65;105517;1254;71875;-77
2023/10/22 08:45:48;;;;;;;13.50;6.70;;;;;;;14.68;100.00;101080.81;105708;1252;61784;-77
2023/10/22 08:48:17;;;;;;;10.80;6.50;;;;;;;14.68;100.00;101076.41;105882;1253;71464;-77
2023/10/22 08:50:46;;;;;;;13.10;7.20;;;;;;;14.66;100.00;101082.39;105683;1257;61671;-74
2023/10/22 08:53:14;;;;;;;13.30;7.50;;;;;;;14.66;100.00;101081.47;105618;1256;59689;-77
2023/10/22 08:55:47;;;;;;;10.60;6.50;;;;;;;14.68;100.00;101075.36;105608;1253;72322;-74
2023/10/22 08:58:16;;;;;;;14.50;6.20;;;;;;;14.71;100.00;101077.11;105835;1254;62431;-74
2023/10/22 09:00:45;;;;;;;18.60;9.20;;;;;;;14.75;100.00;101073.85;105646;1259;72006;-75
2023/10/22 09:03:14;;;;;;;10.10;6.10;;;;;;;14.79;100.00;101072.83;105733;1254;59919;-75
2023/10/22 09:05:42;;;;;;;13.80;6.60;;;;;;;14.83;100.00;101073.63;105659;1252;60081;-75
2023/10/22 09:08:10;;;;;;;11.70;6.20;;;;;;;14.84;100.00;101072.45;105702;1259;73559;-76
2023/10/22 09:10:37;;;;;;;17.80;7.60;;;;;;;14.83;100.00;101067.77;105640;1257;66094;-76
2023/10/22 09:13:08;;;;;;;15.30;8.40;;;;;;;14.84;100.00;101066.31;105695;1257;71468;-76
2023/10/22 09:15:41;;;;;;;17.30;8.10;;;;;;;14.87;100.00;101064.48;105643;1257;60930;-75
2023/10/22 09:18:09;;;;;;;14.20;7.60;;;;;;;14.93;100.00;101059.68;105705;1259;60012;-76
2023/10/22 09:20:40;;;;;;;17.70;9.80;;;;;;;15.01;100.00;101055.77;105685;1257;70841;-75
2023/10/22 09:23:21;;;;;;;13.10;7.50;;;;;;;15.11;100.00;101054.16;105702;1255;63390;-76
2023/10/22 09:25:51;;;;;;;16.00;7.30;;;;;;;15.21;100.00;101059.09;105856;1257;72492;-77
2023/10/22 09:28:27;;;;;;;11.30;6.40;;;;;;;15.26;100.00;101059.79;105695;1257;60679;-78
2023/10/22 09:30:59;;;;;;;15.30;7.00;;;;;;;15.27;100.00;101062.69;105731;1254;60034;-75
2023/10/22 09:33:33;;;;;;;11.20;7.10;;;;;;;15.24;100.00;101055.87;105725;1257;75460;-74
2023/10/22 09:36:03;;;;;;;12.80;7.10;;;;;;;15.21;100.00;101055.89;105678;1254;62401;-75
2023/10/22 09:38:45;;;;;;;11.70;6.70;;;;;;;15.17;100.00;101046.52;105871;1256;72665;-75
2023/10/22 09:45:44;;;;;;;12.50;7.50;;;;;;;15.28;100.00;101041.66;105853;1254;59624;-76
2023/10/22 09:48:15;;;;;;;12.10;7.30;;;;;;;15.31;100.00;101044.25;105808;1254;72533;-77
2023/10/22 09:50:45;;;;;;;17.70;8.20;;;;;;;15.32;100.00;101047.02;105486;1254;62552;-75
2023/10/22 09:53:15;;;;;;;19.50;7.70;;;;;;;15.36;100.00;101037.08;105683;1259;72471;-77
2023/10/22 09:55:48;;;;;;;10.10;6.90;;;;;;;15.42;100.00;101037.85;105913;1254;62085;-75
2023/10/22 09:58:16;;;;;;;12.20;7.30;;;;;;;15.45;100.00;101035.19;105781;1256;59712;-76
2023/10/22 10:00:44;;;;;;;14.00;7.80;;;;;;;15.43;100.00;101031.58;105878;1256;71884;-77
2023/10/22 10:03:19;;;;;;;12.30;7.00;;;;;;;15.45;100.00;101026.86;105766;1254;64375;-77
2023/10/22 10:05:48;;;;;;;13.30;7.40;;;;;;;15.46;100.00;101021.52;105718;1254;72759;-76
2023/10/22 10:08:16;;;;;;;12.20;7.10;;;;;;;15.44;100.00;101018.31;105724;1254;60397;-77
2023/10/22 10:10:47;;;;;;;12.90;7.30;;;;;;;15.38;100.00;101009.40;105535;1260;59551;-78
2023/10/22 10:13:14;;;;;;;16.50;7.60;;;;;;;15.38;100.00;101006.92;105769;1254;73739;-76
2023/10/22 10:15:42;;;;;;;12.20;7.80;;;;;;;15.44;100.00;100998.06;105647;1253;62506;-79
2023/10/22 10:18:09;;;;;;;12.50;7.50;;;;;;;15.51;100.00;100998.06;105582;1256;71564;-76
2023/10/22 10:20:39;;;;;;;11.30;7.20;;;;;;;15.55;100.00;100994.77;105786;1253;60531;-77
2023/10/22 10:23:19;;;;;;;13.60;8.80;;;;;;;15.55;100.00;100991.19;105856;1259;59643;-79
2023/10/22 10:25:46;;;;;;;14.30;7.80;;;;;;;15.59;100.00;100992.16;107051;1254;72046;-74
2023/10/22 10:28:17;;;;;;;9.60;6.90;;;;;;;15.61;100.00;100995.90;106495;1254;62875;-78
2023/10/22 10:30:45;;;;;;;12.30;7.60;;;;;;;15.63;100.00;100991.30;105540;1254;71650;-76
2023/10/22 10:33:14;;;;;;;15.00;8.00;;;;;;;15.60;100.00;100988.95;105661;1254;60517;-79
2023/10/22 10:35:45;;;;;;;12.80;7.80;;;;;;;15.52;100.00;100978.55;105717;1254;60420;-77
2023/10/22 10:38:14;;;;;;;14.00;7.50;;;;;;;15.47;100.00;100973.69;105710;1254;74920;-75
2023/10/22 10:40:43;;;;;;;12.80;9.20;;;;;;;15.50;100.00;100977.50;105784;1257;63937;-78
2023/10/22 10:43:11;;;;;;;15.90;8.10;;;;;;;15.57;100.00;100979.25;105774;1256;71120;-78
2023/10/22 10:45:43;;;;;;;9.30;6.90;;;;;;;15.61;100.00;100973.01;105733;1253;61269;-76
2023/10/22 10:48:47;;;;;;;12.90;7.30;;;;;;;15.64;100.00;100973.45;105749;1254;60498;-78
2023/10/22 10:51:17;;;;;;;10.60;8.00;;;;;;;15.72;100.00;100963.02;105666;1254;72626;-76
2023/10/22 10:54:01;;;;;;;11.60;7.90;;;;;;;15.81;100.00;100966.73;105731;1253;62515;-75
2023/10/22 10:56:49;;;;;;;9.70;7.50;;;;;;;15.90;100.00;100966.95;105717;1253;72142;-77
2023/10/22 10:59:32;;;;;;;13.00;7.50;;;;;;;15.94;100.00;100968.20;105814;1256;62068;-79
2023/10/22 11:02:10;;;;;;;16.30;8.50;;;;;;;15.89;100.00;100968.38;105748;1259;60467;-76
2023/10/22 11:04:44;;;;;;;11.60;7.30;;;;;;;15.88;100.00;100977.81;105628;1253;73801;-77
2023/10/22 11:07:11;;;;;;;11.40;7.00;;;;;;;15.93;100.00;100977.46;105589;1257;62746;-76
2023/10/22 11:09:53;;;;;;;12.90;8.20;;;;;;;15.94;100.00;100977.91;105586;1259;71401;-79
2023/10/22 11:12:21;;;;;;;12.60;8.70;;;;;;;15.90;100.00;100972.94;105642;1253;60444;-80
2023/10/22 11:14:54;;;;;;;11.20;8.10;;;;;;;15.84;100.00;100973.05;105779;1254;60386;-80